Time;durP1;ratioP1;P1;durP2;ratioP2;P2;SDS_P1;SDS_P2;PMS_P1;PMS_P2;Temp;Humidity;BMP_temperature;BMP_pressure;BME280_temperature;BME280_humidity;BME280_pressure;Samples;Min_cycle;Max_cycle;Signal;HPM_P1;HPM_P2
2021/06/23 00:00:56;;;;;;;9.40;7.22;;;;;;;12.76;98.23;101933.91;5251046;28;20104;-65
2021/06/23 00:03:27;;;;;;;14.15;7.93;;;;;;;12.68;97.71;101935.47;5232915;28;20037;-65
2021/06/23 00:05:58;;;;;;;10.05;7.00;;;;;;;12.64;97.80;101932.22;5241826;28;20033;-65
2021/06/23 00:08:30;;;;;;;14.13;7.50;;;;;;;12.60;97.83;101936.88;5245345;28;20138;-65
2021/06/23 00:11:02;;;;;;;11.55;7.03;;;;;;;12.66;97.75;101943.47;5238224;28;20402;-65
2021/06/23 00:13:35;;;;;;;10.47;7.17;;;;;;;12.63;98.25;101938.44;5237285;28;20063;-66
2021/06/23 00:16:08;;;;;;;12.68;7.53;;;;;;;12.60;97.81;101957.06;5230776;28;20564;-65
2021/06/23 00:18:40;;;;;;;10.05;7.72;;;;;;;12.56;95.61;101945.94;5237628;28;20029;-65
2021/06/23 00:21:11;;;;;;;12.45;7.57;;;;;;;12.58;97.09;101937.97;5233355;28;20044;-65
2021/06/23 00:23:42;;;;;;;13.82;8.85;;;;;;;12.51;97.30;101931.50;5236821;28;20029;-65
2021/06/23 00:26:14;;;;;;;17.02;8.73;;;;;;;12.49;96.98;101931.59;5245182;28;20052;-65
2021/06/23 00:28:45;;;;;;;13.00;9.07;;;;;;;12.51;98.61;101924.44;5240868;28;21063;-65
2021/06/23 00:31:16;;;;;;;15.00;8.20;;;;;;;12.46;98.53;101925.72;5247292;28;20036;-65
2021/06/23 00:33:50;;;;;;;15.05;9.13;;;;;;;12.47;99.20;101928.25;5241921;28;20548;-65
2021/06/23 00:36:21;;;;;;;12.88;9.38;;;;;;;12.41;98.26;101913.78;5246943;28;20034;-65
2021/06/23 00:38:53;;;;;;;14.38;9.23;;;;;;;12.38;97.84;101918.44;5242274;28;20514;-65
2021/06/23 00:41:24;;;;;;;16.80;8.73;;;;;;;12.36;98.71;101922.97;5250339;28;20033;-65
2021/06/23 00:43:56;;;;;;;13.75;8.60;;;;;;;12.37;98.19;101927.28;5245247;28;20025;-65
2021/06/23 00:46:28;;;;;;;12.27;8.60;;;;;;;12.38;98.35;101921.06;5245367;28;20025;-65
2021/06/23 00:49:00;;;;;;;13.68;8.88;;;;;;;12.30;96.55;101929.50;5240444;28;20031;-65
2021/06/23 00:51:33;;;;;;;14.00;8.88;;;;;;;12.30;97.54;101934.78;5246564;28;20029;-66
2021/06/23 00:54:13;;;;;;;13.40;9.35;;;;;;;12.41;98.52;101934.81;5239960;28;20025;-65
2021/06/23 00:56:44;;;;;;;10.13;8.93;;;;;;;12.37;97.83;101938.63;5239551;28;20086;-65
2021/06/23 00:59:16;;;;;;;11.98;9.32;;;;;;;12.36;98.00;101936.13;5241305;28;20017;-65
2021/06/23 01:01:47;;;;;;;13.18;9.73;;;;;;;12.33;97.44;101936.34;5241863;28;20033;-65
2021/06/23 01:04:20;;;;;;;12.98;9.07;;;;;;;12.30;96.63;101923.44;5238135;28;20029;-65
2021/06/23 01:06:52;;;;;;;13.02;9.13;;;;;;;12.30;96.94;101941.81;5241079;28;20578;-65
2021/06/23 01:09:23;;;;;;;12.10;9.55;;;;;;;12.32;97.45;101934.69;5249417;28;20067;-65
2021/06/23 01:12:25;;;;;;;13.75;8.75;;;;;;;12.36;96.83;101936.94;5244236;28;20021;-65
2021/06/23 01:15:01;;;;;;;13.75;9.23;;;;;;;12.28;97.51;101938.47;5242773;28;20064;-65
2021/06/23 01:17:34;;;;;;;13.38;9.43;;;;;;;12.27;97.66;101929.72;5239741;28;20037;-65
2021/06/23 01:20:08;;;;;;;12.15;9.57;;;;;;;12.29;98.53;101935.72;5251249;28;20430;-65
2021/06/23 01:22:42;;;;;;;17.02;10.80;;;;;;;12.23;97.71;101940.59;5243363;28;20048;-65
2021/06/23 01:25:15;;;;;;;15.45;9.40;;;;;;;12.32;97.58;101935.50;5250651;28;20030;-65
2021/06/23 01:27:47;;;;;;;13.77;10.55;;;;;;;12.16;96.37;101927.94;5241197;28;20124;-65
2021/06/23 01:30:18;;;;;;;16.13;10.40;;;;;;;12.24;98.03;101937.03;5247819;28;20483;-65
2021/06/23 01:32:50;;;;;;;13.27;9.70;;;;;;;12.15;96.50;101936.75;5241496;28;20064;-65
2021/06/23 01:35:21;;;;;;;13.88;9.75;;;;;;;12.22;97.44;101944.19;5240431;28;20390;-65
2021/06/23 01:37:52;;;;;;;21.38;10.73;;;;;;;12.18;96.81;101947.03;5246464;28;20086;-66
2021/06/23 01:40:24;;;;;;;14.57;10.77;;;;;;;12.20;97.85;101952.19;5240773;28;20025;-65
2021/06/23 01:42:55;;;;;;;15.32;10.23;;;;;;;12.18;96.23;101943.56;5243717;28;20032;-65
2021/06/23 01:45:28;;;;;;;13.80;11.13;;;;;;;12.15;98.00;101947.25;5242454;28;20030;-66
2021/06/23 01:48:00;;;;;;;15.30;10.65;;;;;;;12.13;97.53;101943.09;5239364;28;20025;-65
2021/06/23 01:50:31;;;;;;;19.83;10.85;;;;;;;12.11;97.33;101950.22;5247844;28;20040;-65
2021/06/23 01:53:02;;;;;;;15.43;10.45;;;;;;;12.18;97.65;101948.81;5235036;28;20033;-65
2021/06/23 01:55:34;;;;;;;13.10;10.68;;;;;;;12.20;97.11;101956.59;5245925;28;20033;-66
2021/06/23 01:58:09;;;;;;;16.05;10.15;;;;;;;12.18;97.25;101965.41;5242536;28;20028;-65
2021/06/23 02:01:21;;;;;;;13.52;9.32;;;;;;;12.23;96.69;101978.22;5244379;28;20458;-65
2021/06/23 02:03:56;;;;;;;14.32;10.02;;;;;;;12.22;98.04;101975.72;5241209;28;20570;-65
2021/06/23 02:06:33;;;;;;;15.68;10.90;;;;;;;12.24;98.20;101968.56;5240795;28;20299;-65
2021/06/23 02:09:33;;;;;;;12.25;10.00;;;;;;;12.23;96.55;101962.44;5241196;28;21037;-65
2021/06/23 02:12:16;;;;;;;14.68;10.43;;;;;;;12.22;96.24;101979.19;5249608;28;20025;-65
2021/06/23 02:14:50;;;;;;;14.90;9.73;;;;;;;12.14;97.22;101979.75;5241283;28;20507;-65
2021/06/23 02:17:23;;;;;;;15.38;9.88;;;;;;;12.12;97.27;101975.53;5246194;28;20159;-65
2021/06/23 02:19:57;;;;;;;17.83;10.73;;;;;;;12.14;98.00;101985.00;5248036;28;20032;-65
2021/06/23 02:22:32;;;;;;;18.67;10.50;;;;;;;12.14;96.34;101978.91;5240570;28;20056;-65
2021/06/23 02:25:03;;;;;;;11.77;9.68;;;;;;;12.18;97.10;101980.34;5240659;28;20379;-65
2021/06/23 02:27:38;;;;;;;13.25;9.45;;;;;;;12.15;97.23;101984.03;5238363;28;20034;-65
2021/06/23 02:30:11;;;;;;;14.43;9.60;;;;;;;12.14;97.80;101984.16;5242106;28;20051;-65
2021/06/23 02:32:44;;;;;;;16.10;10.50;;;;;;;12.11;96.92;101993.09;5242413;28;20033;-65
2021/06/23 02:35:16;;;;;;;17.23;10.25;;;;;;;12.10;97.89;101991.41;5243336;28;20505;-65
2021/06/23 02:37:47;;;;;;;12.57;10.18;;;;;;;12.11;97.68;101984.38;5249609;28;20021;-65
2021/06/23 02:40:20;;;;;;;13.05;9.60;;;;;;;12.20;97.42;101980.22;5239776;28;20017;-65
2021/06/23 02:42:52;;;;;;;13.52;9.45;;;;;;;12.18;97.73;101980.34;5244278;28;20040;-65
2021/06/23 02:45:24;;;;;;;12.48;10.48;;;;;;;12.17;97.95;101990.03;5241340;28;20044;-65
2021/06/23 02:47:56;;;;;;;14.95;9.70;;;;;;;12.14;97.44;101998.13;5242955;28;20532;-66
2021/06/23 02:50:32;;;;;;;12.82;8.90;;;;;;;12.17;97.72;101989.19;5240508;28;20038;-65
2021/06/23 02:53:04;;;;;;;13.75;10.48;;;;;;;12.10;98.46;101988.78;5243104;28;20028;-65
2021/06/23 02:55:36;;;;;;;16.05;10.32;;;;;;;12.10;98.34;101985.34;5237370;28;20037;-65
2021/06/23 02:58:08;;;;;;;12.98;10.05;;;;;;;12.06;98.04;101991.75;5237190;28;20025;-65
2021/06/23 03:00:41;;;;;;;18.98;9.90;;;;;;;12.13;97.86;101991.19;5246231;28;20191;-65
2021/06/23 03:03:12;;;;;;;15.98;10.10;;;;;;;12.13;98.67;101988.56;5242330;28;20043;-65
2021/06/23 03:05:44;;;;;;;16.27;9.73;;;;;;;12.13;98.44;101993.00;5238424;28;20021;-65
2021/06/23 03:08:15;;;;;;;13.35;10.45;;;;;;;12.12;98.99;101983.41;5243755;28;20040;-65
2021/06/23 03:10:46;;;;;;;14.50;10.32;;;;;;;12.20;99.46;101993.34;5245351;28;20455;-65
2021/06/23 03:13:17;;;;;;;15.35;10.32;;;;;;;12.13;98.62;101993.84;5238367;28;20445;-65
2021/06/23 03:15:49;;;;;;;14.23;9.32;;;;;;;12.11;98.97;101997.50;5242643;28;20574;-65
2021/06/23 03:18:20;;;;;;;16.85;9.55;;;;;;;12.10;99.88;101996.69;5246843;28;20445;-65
2021/06/23 03:20:52;;;;;;;21.38;9.93;;;;;;;12.12;97.50;101993.94;5235262;28;20085;-65
2021/06/23 03:23:23;;;;;;;14.38;9.85;;;;;;;12.10;98.59;102001.94;5240914;28;20507;-65
2021/06/23 03:25:55;;;;;;;15.95;10.05;;;;;;;12.05;98.81;101990.94;5229101;28;20062;-65
2021/06/23 03:28:26;;;;;;;11.50;9.20;;;;;;;12.04;98.60;101993.66;5238360;28;20029;-65
2021/06/23 03:30:58;;;;;;;14.82;9.40;;;;;;;12.11;99.55;101995.72;5235378;28;20037;-65
2021/06/23 03:33:29;;;;;;;13.73;9.23;;;;;;;12.09;98.97;101997.63;5245760;28;20441;-65
2021/06/23 03:36:00;;;;;;;16.50;8.90;;;;;;;12.12;97.96;101994.78;5249744;28;20111;-65
2021/06/23 03:38:32;;;;;;;17.95;9.35;;;;;;;12.07;98.54;101991.63;5245331;28;20044;-65
2021/06/23 03:41:03;;;;;;;12.50;9.60;;;;;;;12.11;99.42;102000.97;5242670;28;20025;-65
2021/06/23 03:43:35;;;;;;;18.02;10.23;;;;;;;12.09;98.90;102004.69;5248211;28;20025;-65
2021/06/23 03:46:06;;;;;;;14.27;10.60;;;;;;;12.09;99.56;101995.00;5242481;28;20025;-65
2021/06/23 03:48:37;;;;;;;10.95;8.95;;;;;;;12.11;98.85;102005.38;5239910;28;20035;-65
2021/06/23 03:51:08;;;;;;;16.10;10.73;;;;;;;12.10;99.77;101998.47;5237012;28;20044;-65
2021/06/23 03:53:40;;;;;;;14.25;9.63;;;;;;;12.10;99.44;101991.41;5238571;28;20056;-65
2021/06/23 03:56:11;;;;;;;15.00;9.38;;;;;;;12.09;98.58;101991.53;5239155;28;20017;-65
2021/06/23 03:58:43;;;;;;;13.85;9.00;;;;;;;12.05;98.99;102000.59;5241770;28;20068;-65
2021/06/23 04:01:14;;;;;;;13.40;9.70;;;;;;;12.12;100.00;102000.03;5237276;28;20052;-65
2021/06/23 04:03:46;;;;;;;12.75;8.35;;;;;;;12.09;98.59;102005.50;5242313;28;20487;-65
2021/06/23 04:06:17;;;;;;;20.08;9.85;;;;;;;12.11;98.65;102002.75;5240477;28;20025;-66
2021/06/23 04:08:48;;;;;;;13.63;9.05;;;;;;;12.01;98.48;101991.25;5244022;28;20040;-65
2021/06/23 04:11:19;;;;;;;15.05;9.05;;;;;;;12.11;99.05;102005.38;5239849;28;20033;-65
2021/06/23 04:13:51;;;;;;;11.95;9.07;;;;;;;12.11;99.64;102000.97;5243169;28;20033;-66
2021/06/23 04:16:22;;;;;;;11.95;9.25;;;;;;;12.09;98.80;101991.53;5239754;28;20132;-66
2021/06/23 04:18:53;;;;;;;16.42;8.90;;;;;;;12.09;98.23;102000.25;5238985;28;20022;-66
2021/06/23 04:21:25;;;;;;;13.18;8.60;;;;;;;12.12;98.77;101993.94;5248397;28;20044;-66
2021/06/23 04:23:56;;;;;;;15.45;9.02;;;;;;;11.98;97.89;101983.59;5235152;28;20029;-66
2021/06/23 04:26:27;;;;;;;17.40;10.05;;;;;;;12.07;98.52;101990.81;5236502;28;20109;-66
2021/06/23 04:28:58;;;;;;;13.32;8.15;;;;;;;12.09;98.83;101997.63;5233072;28;20501;-66
2021/06/23 04:31:31;;;;;;;13.10;8.75;;;;;;;12.09;98.25;101999.44;5244369;28;20069;-66
2021/06/23 04:34:02;;;;;;;11.30;8.13;;;;;;;12.12;98.23;101999.19;5243157;28;20572;-66
2021/06/23 04:36:34;;;;;;;16.38;8.45;;;;;;;12.12;97.92;101999.19;5239659;28;20036;-66
2021/06/23 04:39:05;;;;;;;15.43;7.85;;;;;;;12.16;97.79;101998.03;5238351;28;20023;-66
2021/06/23 04:41:36;;;;;;;12.90;7.85;;;;;;;12.16;97.38;102004.13;5239830;28;20089;-66
2021/06/23 04:44:08;;;;;;;14.38;8.05;;;;;;;12.16;97.15;101995.41;5236917;28;20033;-66
2021/06/23 04:46:39;;;;;;;11.45;7.22;;;;;;;12.18;97.57;102002.19;5242150;28;20025;-66
2021/06/23 04:49:10;;;;;;;15.15;8.15;;;;;;;12.20;96.52;102003.88;5247270;28;20132;-65
2021/06/23 04:51:42;;;;;;;10.90;8.32;;;;;;;12.31;98.47;102004.78;5236774;28;20013;-66
2021/06/23 04:54:15;;;;;;;16.45;8.88;;;;;;;12.18;97.25;102001.38;5238581;28;20048;-66
2021/06/23 04:56:46;;;;;;;14.35;9.18;;;;;;;12.25;98.13;102004.41;5241668;28;20310;-66
2021/06/23 04:59:17;;;;;;;16.27;8.23;;;;;;;12.24;97.21;101995.69;5246835;28;20075;-66
2021/06/23 05:01:48;;;;;;;15.38;8.90;;;;;;;12.39;97.74;101998.97;5238197;28;20075;-66
2021/06/23 05:04:20;;;;;;;13.82;8.30;;;;;;;12.40;97.41;102000.63;5236086;28;20078;-66
2021/06/23 05:06:51;;;;;;;12.15;8.55;;;;;;;12.44;98.32;102007.34;5240303;28;20029;-66
2021/06/23 05:09:22;;;;;;;10.32;7.97;;;;;;;12.37;95.78;102006.94;5233834;28;20042;-65
2021/06/23 05:11:53;;;;;;;17.92;8.70;;;;;;;12.38;96.34;102013.03;5248170;28;20021;-67
2021/06/23 05:14:25;;;;;;;10.13;8.18;;;;;;;12.35;95.87;102008.00;5245614;28;20064;-66
2021/06/23 05:16:57;;;;;;;14.43;8.88;;;;;;;12.37;97.03;102003.47;5234643;28;20039;-66
2021/06/23 05:19:29;;;;;;;15.73;9.98;;;;;;;12.46;97.29;102010.66;5241428;28;20084;-66
2021/06/23 05:22:01;;;;;;;13.93;8.50;;;;;;;12.47;96.19;102022.06;5238578;28;20055;-66
2021/06/23 05:24:32;;;;;;;17.92;8.38;;;;;;;12.46;96.29;102007.22;5247438;28;20482;-66
2021/06/23 05:27:04;;;;;;;12.23;8.90;;;;;;;12.52;96.24;102006.78;5245099;28;20564;-66
2021/06/23 05:29:36;;;;;;;12.90;8.73;;;;;;;12.61;96.87;102019.22;5241157;28;20029;-66
2021/06/23 05:32:07;;;;;;;15.07;9.55;;;;;;;12.64;97.00;102009.31;5237296;28;20044;-66
2021/06/23 05:34:38;;;;;;;11.90;9.23;;;;;;;12.60;96.22;102014.91;5238840;28;20462;-66
2021/06/23 05:37:10;;;;;;;14.73;9.32;;;;;;;12.59;95.81;102010.63;5239041;28;20029;-66
2021/06/23 05:39:41;;;;;;;14.73;9.25;;;;;;;12.67;96.15;102016.13;5238125;28;20048;-66
2021/06/23 05:42:12;;;;;;;16.10;10.27;;;;;;;12.74;98.52;102009.47;5238022;28;20056;-66
2021/06/23 05:44:44;;;;;;;12.98;9.23;;;;;;;12.72;95.87;102018.41;5235923;28;20029;-66
2021/06/23 05:47:16;;;;;;;17.92;8.90;;;;;;;12.81;96.83;102015.94;5239168;28;20036;-66
2021/06/23 05:49:47;;;;;;;13.30;9.07;;;;;;;12.78;94.88;102013.53;5240994;28;20056;-66
2021/06/23 05:52:18;;;;;;;17.80;9.05;;;;;;;12.76;94.21;102018.06;5236688;28;20026;-66
2021/06/23 05:54:50;;;;;;;17.17;9.00;;;;;;;12.78;93.76;102023.22;5240863;28;20029;-66
2021/06/23 05:57:21;;;;;;;12.07;8.45;;;;;;;12.71;93.62;102014.94;5249632;28;20042;-66
2021/06/23 05:59:52;;;;;;;15.18;8.23;;;;;;;12.87;94.37;102025.16;5237906;28;20072;-66
2021/06/23 06:02:23;;;;;;;14.07;9.02;;;;;;;12.85;94.63;102022.66;5237897;28;20033;-66
2021/06/23 06:04:55;;;;;;;11.60;7.85;;;;;;;12.85;92.46;102032.34;5241539;28;20553;-66
2021/06/23 06:07:26;;;;;;;13.18;8.98;;;;;;;13.02;95.50;102033.66;5243583;28;20060;-66
2021/06/23 06:09:57;;;;;;;11.75;8.38;;;;;;;12.98;94.87;102029.59;5236485;28;20075;-66
2021/06/23 06:12:28;;;;;;;15.15;7.90;;;;;;;13.07;94.03;102028.91;5235937;28;20028;-66
2021/06/23 06:15:00;;;;;;;12.38;7.90;;;;;;;13.05;93.76;102030.81;5231311;28;20029;-67
2021/06/23 06:17:31;;;;;;;14.23;8.85;;;;;;;13.10;94.29;102036.53;5235422;28;20470;-67
2021/06/23 06:20:05;;;;;;;10.75;8.43;;;;;;;13.14;92.29;102040.63;5236257;28;20045;-65
2021/06/23 06:22:37;;;;;;;15.63;8.30;;;;;;;13.16;93.55;102043.97;5238952;28;20625;-65
2021/06/23 06:25:09;;;;;;;13.55;9.38;;;;;;;13.25;94.31;102045.09;5241259;28;20021;-65
2021/06/23 06:27:40;;;;;;;13.63;8.10;;;;;;;13.26;92.84;102044.13;5247235;28;20075;-65
2021/06/23 06:30:12;;;;;;;15.93;8.60;;;;;;;13.29;92.64;102051.78;5239675;28;20110;-65
2021/06/23 06:32:44;;;;;;;14.27;8.13;;;;;;;13.27;91.95;102046.66;5238802;28;20092;-65
2021/06/23 06:35:15;;;;;;;12.35;7.90;;;;;;;13.29;92.09;102055.25;5246059;28;20441;-67
2021/06/23 06:37:46;;;;;;;15.93;7.65;;;;;;;13.35;91.95;102056.59;5244269;28;20390;-68
2021/06/23 06:40:18;;;;;;;15.35;8.50;;;;;;;13.37;91.69;102055.53;5246460;28;20017;-68
2021/06/23 06:42:49;;;;;;;11.45;7.90;;;;;;;13.46;91.87;102059.25;5244043;28;20664;-68
2021/06/23 06:45:22;;;;;;;12.35;7.60;;;;;;;13.46;91.13;102053.13;5245825;28;20493;-68
2021/06/23 06:47:53;;;;;;;8.75;7.45;;;;;;;13.54;91.50;102058.66;5246332;28;20025;-65
2021/06/23 06:50:25;;;;;;;12.48;8.18;;;;;;;13.61;91.44;102062.47;5240363;28;20036;-65
2021/06/23 06:52:56;;;;;;;12.30;7.47;;;;;;;13.52;90.64;102064.00;5236983;28;20029;-66
2021/06/23 06:55:27;;;;;;;11.30;6.32;;;;;;;13.57;87.84;102066.31;5243781;28;20059;-65
2021/06/23 06:57:59;;;;;;;14.65;7.07;;;;;;;13.62;89.68;102062.34;5235115;28;20359;-65
2021/06/23 07:00:30;;;;;;;11.20;6.68;;;;;;;13.66;88.09;102067.38;5242905;28;20470;-65
2021/06/23 07:03:01;;;;;;;11.35;6.30;;;;;;;13.61;86.62;102067.75;5233004;28;20022;-66
2021/06/23 07:05:33;;;;;;;10.98;5.80;;;;;;;13.64;86.38;102072.78;5232052;28;20056;-65
2021/06/23 07:08:04;;;;;;;10.35;5.70;;;;;;;13.71;86.27;102071.31;5243097;28;20051;-65
2021/06/23 07:10:36;;;;;;;9.15;5.40;;;;;;;13.74;86.76;102072.88;5237251;28;21235;-65
2021/06/23 07:13:07;;;;;;;12.68;6.25;;;;;;;13.87;88.65;102066.53;5242141;28;20040;-65
2021/06/23 07:15:39;;;;;;;10.90;5.70;;;;;;;13.81;85.27;102069.63;5244105;28;20032;-66
2021/06/23 07:18:10;;;;;;;9.15;4.88;;;;;;;13.80;84.80;102067.97;5243922;28;20125;-66
2021/06/23 07:20:41;;;;;;;13.60;5.43;;;;;;;13.90;85.64;102073.31;5241143;28;20022;-66
2021/06/23 07:23:13;;;;;;;10.18;4.72;;;;;;;13.97;86.56;102071.88;5240635;28;20133;-65
2021/06/23 07:25:44;;;;;;;9.05;5.20;;;;;;;14.04;87.50;102075.72;5239715;28;20536;-65
2021/06/23 07:28:21;;;;;;;13.80;5.38;;;;;;;14.07;86.33;102069.38;5238810;28;20017;-66
2021/06/23 07:30:53;;;;;;;8.88;4.60;;;;;;;14.19;83.60;102078.91;5240025;28;20030;-66
2021/06/23 07:33:24;;;;;;;14.90;4.85;;;;;;;14.31;84.59;102077.91;5240981;28;20032;-66
2021/06/23 07:38:45;;;;;;;8.75;4.78;;;;;;;14.48;83.88;102065.19;5236918;28;20486;-66
2021/06/23 07:41:16;;;;;;;8.50;4.65;;;;;;;14.60;83.85;102074.75;5233199;28;20033;-66
2021/06/23 07:43:47;;;;;;;11.60;4.55;;;;;;;14.60;83.02;102077.38;5242235;28;20036;-66
2021/06/23 07:46:19;;;;;;;10.80;5.05;;;;;;;14.69;81.74;102068.69;5239890;28;20036;-66
2021/06/23 07:48:52;;;;;;;11.25;4.80;;;;;;;14.74;81.33;102074.44;5239637;28;20037;-66
2021/06/23 07:54:32;;;;;;;10.50;4.15;;;;;;;14.82;81.38;102066.72;5228857;28;20323;-66
2021/06/23 08:08:12;;;;;;;12.43;4.25;;;;;;;15.01;80.20;102078.41;5243411;28;20072;-66
2021/06/23 08:10:48;;;;;;;9.93;3.83;;;;;;;15.20;80.22;102073.22;5240945;28;20593;-66
2021/06/23 08:13:20;;;;;;;11.10;4.15;;;;;;;15.39;80.47;102074.31;5240468;28;20785;-66
2021/06/23 08:15:51;;;;;;;10.88;4.30;;;;;;;15.53;78.00;102079.22;5236291;28;20116;-66
2021/06/23 08:18:22;;;;;;;9.80;4.05;;;;;;;15.71;77.73;102074.19;5240811;28;20471;-66
2021/06/23 08:20:53;;;;;;;11.32;4.07;;;;;;;15.89;79.32;102071.75;5240635;28;20053;-66
2021/06/23 08:23:25;;;;;;;9.07;3.63;;;;;;;15.90;76.86;102068.13;5241051;28;20143;-66
2021/06/23 08:25:56;;;;;;;12.10;4.25;;;;;;;15.81;76.18;102065.31;5237833;28;20372;-66
2021/06/23 08:28:27;;;;;;;7.35;3.35;;;;;;;15.92;75.35;102067.03;5241754;28;20103;-66
2021/06/23 08:30:59;;;;;;;10.73;3.85;;;;;;;15.93;75.12;102066.06;5237216;28;20025;-66
2021/06/23 08:33:30;;;;;;;12.15;4.38;;;;;;;15.96;76.59;102064.97;5238732;28;20041;-66
2021/06/23 08:36:03;;;;;;;10.10;4.25;;;;;;;16.08;74.24;102068.31;5239227;28;20031;-66
2021/06/23 08:38:35;;;;;;;8.23;3.47;;;;;;;16.15;74.47;102070.28;5240322;28;20040;-66
2021/06/23 08:41:06;;;;;;;11.73;3.67;;;;;;;16.20;75.34;102075.16;5239729;28;20032;-66
2021/06/23 08:43:38;;;;;;;9.07;3.70;;;;;;;16.13;73.75;102061.63;5243287;28;20397;-66
2021/06/23 08:46:09;;;;;;;13.25;4.47;;;;;;;16.29;74.78;102071.69;5237099;28;20759;-66
2021/06/23 08:48:41;;;;;;;12.85;4.10;;;;;;;16.43;74.76;102070.44;5234946;28;20073;-65
2021/06/23 08:51:13;;;;;;;8.40;3.67;;;;;;;16.44;74.55;102083.53;5234985;28;20039;-66
2021/06/23 08:53:44;;;;;;;10.97;4.20;;;;;;;16.40;72.71;102078.66;5237108;28;20033;-66
2021/06/23 08:56:15;;;;;;;11.40;4.13;;;;;;;16.54;71.50;102079.06;5237179;28;20033;-66
2021/06/23 08:58:47;;;;;;;9.73;3.53;;;;;;;16.54;71.01;102084.38;5235241;28;20030;-66
2021/06/23 09:01:18;;;;;;;9.52;4.38;;;;;;;16.53;71.93;102082.69;5244762;28;20470;-66
2021/06/23 09:04:03;;;;;;;13.73;4.47;;;;;;;16.68;70.95;102080.47;5244696;28;20020;-66
2021/06/23 09:06:44;;;;;;;8.57;3.75;;;;;;;16.64;70.09;102078.25;5239591;28;20044;-66
2021/06/23 09:09:31;;;;;;;10.10;4.63;;;;;;;16.64;71.20;102079.09;5247357;28;20044;-66
2021/06/23 09:12:05;;;;;;;11.35;4.72;;;;;;;16.59;71.73;102076.00;5241405;28;20045;-66
2021/06/23 09:14:38;;;;;;;9.60;3.65;;;;;;;16.75;70.95;102078.97;5240010;28;20026;-66
2021/06/23 09:17:11;;;;;;;10.55;4.07;;;;;;;16.65;71.49;102082.56;5243625;28;20380;-66
2021/06/23 09:19:46;;;;;;;8.05;4.40;;;;;;;16.76;69.38;102079.81;5238486;28;20017;-66
2021/06/23 09:22:39;;;;;;;10.52;4.25;;;;;;;16.90;70.57;102081.19;5244034;28;20046;-66
2021/06/23 09:25:10;;;;;;;8.45;4.07;;;;;;;16.93;69.87;102084.41;5245989;28;20071;-67
2021/06/23 09:27:56;;;;;;;10.50;4.13;;;;;;;17.04;71.28;102086.03;5246849;28;20036;-66
2021/06/23 09:30:35;;;;;;;9.10;3.95;;;;;;;16.99;68.31;102082.97;5242922;28;20044;-66
2021/06/23 09:33:07;;;;;;;7.55;4.00;;;;;;;17.08;70.15;102087.41;5241508;28;20155;-66
2021/06/23 09:35:41;;;;;;;11.00;4.18;;;;;;;17.17;69.70;102080.44;5244798;28;20048;-67
2021/06/23 09:38:38;;;;;;;8.88;4.15;;;;;;;17.37;71.00;102079.41;5243880;28;20060;-67
2021/06/23 09:41:30;;;;;;;8.02;4.20;;;;;;;17.25;68.82;102089.34;5243812;28;20044;-66
2021/06/23 09:44:06;;;;;;;9.75;4.45;;;;;;;17.34;67.48;102085.00;5246325;28;20028;-66
2021/06/23 09:46:42;;;;;;;10.65;4.00;;;;;;;17.40;68.43;102087.06;5244773;28;20037;-66
2021/06/23 09:49:23;;;;;;;10.90;4.40;;;;;;;17.59;70.24;102083.50;5237257;28;20090;-65
2021/06/23 09:51:56;;;;;;;9.85;4.47;;;;;;;17.39;68.40;102085.41;5244382;28;20067;-65
2021/06/23 09:54:30;;;;;;;7.70;4.05;;;;;;;17.53;68.68;102070.84;5242936;28;20035;-65
2021/06/23 09:57:02;;;;;;;10.02;4.35;;;;;;;17.43;66.02;102081.50;5241206;28;20037;-65
2021/06/23 09:59:39;;;;;;;9.23;3.70;;;;;;;17.43;65.89;102080.66;5242228;28;20034;-65
2021/06/23 10:02:26;;;;;;;9.38;3.83;;;;;;;17.56;65.46;102090.91;5244882;28;20358;-65
2021/06/23 10:05:00;;;;;;;11.35;4.05;;;;;;;17.40;66.27;102091.53;5243814;28;20021;-65
2021/06/23 10:07:43;;;;;;;9.70;4.50;;;;;;;17.38;67.49;102086.38;5240480;28;20480;-64
2021/06/23 10:10:20;;;;;;;13.05;4.00;;;;;;;17.61;65.63;102083.34;5244417;28;20041;-65
2021/06/23 10:12:53;;;;;;;8.13;3.70;;;;;;;17.61;64.63;102093.97;5243028;28;20024;-65
2021/06/23 10:15:25;;;;;;;9.52;3.80;;;;;;;17.72;63.00;102094.59;5244043;28;20037;-65
2021/06/23 10:17:57;;;;;;;9.73;3.90;;;;;;;17.83;63.94;102090.97;5242645;28;20026;-65
2021/06/23 10:20:28;;;;;;;8.32;3.55;;;;;;;17.97;62.69;102081.69;5245550;28;20072;-67
2021/06/23 10:23:04;;;;;;;10.82;3.88;;;;;;;17.92;62.63;102086.63;5243996;28;20144;-68
2021/06/23 10:25:35;;;;;;;10.43;3.65;;;;;;;18.12;63.11;102087.31;5242131;28;20098;-65
2021/06/23 10:28:07;;;;;;;10.38;3.78;;;;;;;18.33;63.86;102079.06;5242430;28;20017;-65
2021/06/23 10:30:38;;;;;;;12.43;3.23;;;;;;;18.21;62.74;102083.75;5240178;28;20104;-65
2021/06/23 10:33:10;;;;;;;8.90;3.20;;;;;;;18.23;62.69;102081.81;5239574;28;20579;-65
2021/06/23 10:35:42;;;;;;;10.17;3.37;;;;;;;18.00;61.73;102078.75;5245008;28;20037;-66
2021/06/23 10:38:17;;;;;;;10.87;3.30;;;;;;;18.28;65.16;102081.34;5245638;28;20028;-66
2021/06/23 10:40:48;;;;;;;10.35;3.45;;;;;;;18.34;60.79;102086.06;5241544;28;20449;-67
2021/06/23 10:43:22;;;;;;;11.40;3.08;;;;;;;18.19;60.60;102091.06;5240213;28;20020;-66
2021/06/23 10:45:53;;;;;;;10.07;3.13;;;;;;;18.08;60.12;102088.63;5239944;28;20057;-66
2021/06/23 10:48:25;;;;;;;8.43;2.70;;;;;;;18.06;61.05;102094.03;5245020;28;20059;-66
2021/06/23 10:50:56;;;;;;;6.60;3.10;;;;;;;18.02;61.31;102097.16;5242057;28;20024;-66
2021/06/23 10:53:30;;;;;;;8.55;3.20;;;;;;;18.12;62.13;102092.63;5242298;28;20037;-66
2021/06/23 10:56:04;;;;;;;8.65;3.25;;;;;;;18.01;62.87;102098.13;5244635;28;20037;-66
2021/06/23 10:58:36;;;;;;;10.27;2.90;;;;;;;17.90;61.99;102099.16;5242079;28;20033;-66
2021/06/23 11:01:12;;;;;;;9.73;3.33;;;;;;;17.97;61.13;102103.72;5244247;28;20568;-66
2021/06/23 11:04:03;;;;;;;9.02;3.50;;;;;;;18.02;62.04;102103.28;5242957;28;20467;-66
2021/06/23 11:06:46;;;;;;;7.95;3.03;;;;;;;17.89;61.16;102108.13;5241484;28;20033;-66
2021/06/23 11:09:26;;;;;;;9.00;3.60;;;;;;;17.97;60.12;102105.56;5240822;28;20033;-66
2021/06/23 11:11:57;;;;;;;8.52;3.25;;;;;;;17.93;59.69;102104.19;5243337;28;20029;-67
2021/06/23 11:14:32;;;;;;;10.32;3.60;;;;;;;18.02;62.56;102102.44;5244646;28;20528;-67
2021/06/23 11:17:30;;;;;;;8.10;3.15;;;;;;;18.10;62.38;102097.22;5242827;28;20092;-66
2021/06/23 11:20:02;;;;;;;8.18;3.40;;;;;;;18.04;61.52;102089.91;5240311;28;20060;-67
2021/06/23 11:22:34;;;;;;;8.75;2.97;;;;;;;18.26;61.93;102097.44;5244845;28;20534;-66
2021/06/23 11:25:18;;;;;;;9.95;3.35;;;;;;;18.36;62.68;102095.53;5241054;28;20024;-66
2021/06/23 11:28:08;;;;;;;7.05;3.50;;;;;;;18.50;62.81;102101.31;5243852;28;20028;-66
2021/06/23 11:30:42;;;;;;;8.32;3.33;;;;;;;18.50;61.80;102091.53;5242177;28;20041;-66
2021/06/23 11:33:28;;;;;;;8.52;3.97;;;;;;;18.47;61.46;102094.47;5244079;28;20380;-66
2021/06/23 11:36:13;;;;;;;5.53;3.13;;;;;;;18.39;59.82;102087.28;5248761;28;20025;-66
2021/06/23 11:38:47;;;;;;;10.80;3.50;;;;;;;18.62;59.49;102098.25;5244280;28;20021;-66
2021/06/23 11:41:19;;;;;;;11.02;3.40;;;;;;;18.68;59.46;102091.53;5243398;28;20043;-66
2021/06/23 11:43:51;;;;;;;8.83;3.37;;;;;;;18.73;59.42;102091.09;5241048;28;20017;-66
2021/06/23 11:46:22;;;;;;;6.43;3.10;;;;;;;18.52;60.60;102092.19;5246598;28;20029;-67
2021/06/23 11:48:54;;;;;;;8.43;3.03;;;;;;;18.62;58.03;102087.66;5241998;28;20364;-66
2021/06/23 11:51:25;;;;;;;6.27;2.50;;;;;;;18.57;55.26;102097.06;5240641;28;20065;-68
2021/06/23 11:53:56;;;;;;;7.73;2.77;;;;;;;18.41;55.13;102093.28;5240846;28;20434;-67
2021/06/23 11:56:28;;;;;;;8.17;3.40;;;;;;;18.54;57.55;102086.75;5241220;28;20398;-66
2021/06/23 11:58:59;;;;;;;9.97;3.17;;;;;;;18.65;58.53;102092.66;5243472;28;20025;-67
2021/06/23 12:01:31;;;;;;;7.67;2.90;;;;;;;18.84;60.82;102089.03;5244339;28;20087;-67